createdAt,value
2022-12-09T00:04:21.462Z,1.94
2022-12-09T00:09:23.417Z,1.92
2022-12-09T00:14:25.742Z,1.91
2022-12-09T00:19:27.649Z,2.18
2022-12-09T00:24:29.533Z,2.10
2022-12-09T00:29:31.548Z,2.01
2022-12-09T00:34:33.413Z,2.08
2022-12-09T00:39:35.123Z,1.98
2022-12-09T00:44:36.906Z,1.91
2022-12-09T00:49:38.995Z,1.90
2022-12-09T00:54:40.842Z,1.84
2022-12-09T01:00:36.494Z,1.84
2022-12-09T01:05:38.336Z,2.09
2022-12-09T01:10:42.093Z,2.10
2022-12-09T01:15:44.555Z,2.06
2022-12-09T01:20:56.485Z,2.00
2022-12-09T01:25:58.510Z,1.94
2022-12-09T01:31:17.834Z,2.08
2022-12-09T01:36:22.860Z,2.00
2022-12-09T01:41:25.053Z,1.88
2022-12-09T01:46:26.828Z,1.81
2022-12-09T01:51:30.476Z,1.81
2022-12-09T01:56:35.021Z,1.78
2022-12-09T02:01:38.825Z,1.89
2022-12-09T02:06:41.019Z,1.75
2022-12-09T02:12:08.374Z,1.79
2022-12-09T02:17:28.942Z,1.72
2022-12-09T02:22:40.837Z,1.75
2022-12-09T02:27:59.164Z,1.74
2022-12-09T02:33:19.454Z,1.76
2022-12-09T02:38:31.934Z,1.70
2022-12-09T02:43:41.137Z,1.68
2022-12-09T02:48:55.937Z,1.62
2022-12-09T02:54:03.992Z,1.60
2022-12-09T02:59:09.608Z,1.69
2022-12-09T03:04:21.346Z,1.82
2022-12-09T03:09:33.989Z,1.67
2022-12-09T03:14:41.883Z,1.60
2022-12-09T03:20:05.045Z,1.97
2022-12-09T03:25:26.392Z,1.80
2022-12-09T03:30:36.770Z,1.63
2022-12-09T03:35:46.458Z,1.60
2022-12-09T03:40:53.949Z,1.66
2022-12-09T03:45:57.523Z,1.63
2022-12-09T03:51:15.913Z,1.62
2022-12-09T03:56:45.532Z,1.62
2022-12-09T04:01:47.808Z,1.61
2022-12-09T04:06:51.758Z,1.74
2022-12-09T04:11:53.411Z,1.83
2022-12-09T04:16:55.343Z,1.73
2022-12-09T04:21:57.044Z,1.81
2022-12-09T04:26:58.939Z,1.77
2022-12-09T04:32:00.721Z,1.76
2022-12-09T04:37:02.541Z,1.62
2022-12-09T04:42:04.605Z,1.71
2022-12-09T04:47:06.516Z,1.66
2022-12-09T04:52:08.138Z,1.59
2022-12-09T04:57:12.348Z,1.60
2022-12-09T05:02:15.123Z,1.68
2022-12-09T05:07:17.270Z,1.57
2022-12-09T05:12:19.439Z,1.57
2022-12-09T05:17:21.846Z,1.52
2022-12-09T05:22:24.011Z,1.60
2022-12-09T05:27:26.048Z,1.60
2022-12-09T05:32:30.957Z,1.60
2022-12-09T05:37:33.401Z,1.58
2022-12-09T05:42:41.168Z,1.59
2022-12-09T05:47:44.173Z,1.56
2022-12-09T05:52:46.635Z,1.70
2022-12-09T05:57:48.819Z,1.52
2022-12-09T06:02:50.957Z,1.58
2022-12-09T06:07:53.234Z,1.63
2022-12-09T06:12:55.454Z,1.66
2022-12-09T06:17:57.340Z,1.69
2022-12-09T06:22:59.518Z,1.64
2022-12-09T06:28:01.475Z,1.58
2022-12-09T06:33:17.282Z,1.52
2022-12-09T06:38:25.482Z,1.65
2022-12-09T06:43:27.779Z,1.73
2022-12-09T06:48:30.107Z,1.61
2022-12-09T06:53:35.363Z,1.60
2022-12-09T06:58:37.381Z,1.62
2022-12-09T07:03:40.940Z,1.66
2022-12-09T07:08:42.802Z,1.76
2022-12-09T07:13:44.943Z,1.63
2022-12-09T07:18:46.973Z,1.61
2022-12-09T07:23:49.186Z,1.55
2022-12-09T07:28:51.320Z,1.61
2022-12-09T07:33:55.549Z,1.64
2022-12-09T07:39:03.265Z,1.96
2022-12-09T07:44:05.464Z,1.87
2022-12-09T07:49:10.105Z,1.84
2022-12-09T07:54:16.550Z,1.87
2022-12-09T07:59:18.495Z,2.08
2022-12-09T08:04:20.850Z,2.08
2022-12-09T08:09:22.914Z,2.30
2022-12-09T08:14:24.736Z,2.52
2022-12-09T08:19:27.058Z,2.46
2022-12-09T08:24:29.464Z,2.44
2022-12-09T08:29:31.368Z,2.70
2022-12-09T08:34:33.315Z,2.49
2022-12-09T08:39:35.538Z,2.61
2022-12-09T08:44:38.804Z,2.88
2022-12-09T08:49:41.129Z,2.73
2022-12-09T08:54:43.127Z,3.02
2022-12-09T08:59:45.492Z,3.02
2022-12-09T09:04:48.455Z,2.80
2022-12-09T09:09:50.489Z,2.74
2022-12-09T09:14:54.810Z,2.92
2022-12-09T09:19:56.790Z,2.99
2022-12-09T09:24:58.997Z,2.68
2022-12-09T09:30:00.899Z,2.77
2022-12-09T09:35:03.384Z,2.63
2022-12-09T09:40:07.054Z,2.53
2022-12-09T09:45:16.005Z,2.82
2022-12-09T09:50:33.105Z,2.84
2022-12-09T09:55:43.135Z,2.76
2022-12-09T10:00:56.000Z,2.57
2022-12-09T10:06:06.399Z,2.73
2022-12-09T10:11:17.999Z,2.69
2022-12-09T10:16:26.631Z,2.65
2022-12-09T10:21:32.102Z,2.84
2022-12-09T10:26:35.354Z,2.88
2022-12-09T10:31:37.509Z,3.03
2022-12-09T10:36:43.872Z,2.98
2022-12-09T10:42:10.546Z,2.90
2022-12-09T10:47:27.212Z,3.04
2022-12-09T10:52:37.862Z,3.28
2022-12-09T10:57:40.011Z,3.24
2022-12-09T11:02:50.693Z,3.48
2022-12-09T11:07:54.341Z,3.69
2022-12-09T11:13:06.382Z,3.92
2022-12-09T11:18:19.210Z,4.46
2022-12-09T11:23:21.344Z,3.83
2022-12-09T11:28:32.862Z,3.87
2022-12-09T11:33:41.914Z,4.19
2022-12-09T11:38:46.528Z,4.26
2022-12-09T11:43:50.179Z,4.67
2022-12-09T11:48:57.369Z,4.69
2022-12-09T11:54:04.649Z,4.24
2022-12-09T11:59:20.855Z,4.24
2022-12-09T12:04:36.194Z,4.58
2022-12-09T12:09:57.356Z,4.36
2022-12-09T12:15:10.202Z,3.94
2022-12-09T12:20:13.728Z,3.60
2022-12-09T12:25:34.108Z,3.61
2022-12-09T12:30:48.152Z,3.48
2022-12-09T12:36:11.341Z,3.37
2022-12-09T12:41:44.245Z,3.31
2022-12-09T12:47:16.718Z,3.26
2022-12-09T12:52:59.408Z,3.15
2022-12-09T12:58:16.177Z,3.15
2022-12-09T13:03:26.105Z,3.03
2022-12-09T13:08:39.204Z,2.87
2022-12-09T13:13:51.306Z,3.00
2022-12-09T13:18:53.713Z,2.64
2022-12-09T13:24:26.701Z,2.64
2022-12-09T13:29:43.890Z,2.52
2022-12-09T13:34:55.467Z,2.43
2022-12-09T13:39:58.680Z,2.47
2022-12-09T13:45:23.500Z,2.54
2022-12-09T13:50:57.492Z,2.46
2022-12-09T13:56:07.097Z,2.50
2022-12-09T14:01:15.344Z,2.56
2022-12-09T14:06:46.308Z,2.56
2022-12-09T14:11:56.217Z,2.37
2022-12-09T14:17:00.405Z,2.42
2022-12-09T14:22:18.295Z,2.36
2022-12-09T14:27:27.884Z,2.32
2022-12-09T14:32:37.514Z,2.24
2022-12-09T14:37:51.993Z,2.33
2022-12-09T14:43:26.424Z,2.69
2022-12-09T14:48:35.398Z,2.69
2022-12-09T14:53:38.264Z,2.50
2022-12-09T14:58:40.234Z,2.55
2022-12-09T15:03:51.336Z,2.51
2022-12-09T15:08:58.415Z,2.45
2022-12-09T15:14:22.532Z,2.37
2022-12-09T15:24:51.626Z,2.41
2022-12-09T15:29:53.841Z,2.41
2022-12-09T15:34:56.070Z,2.34
2022-12-09T15:40:08.819Z,2.19
2022-12-09T15:45:19.424Z,2.22
2022-12-09T15:50:28.520Z,2.01
2022-12-09T15:55:37.769Z,1.93
2022-12-09T16:00:48.765Z,2.08
2022-12-09T16:06:01.130Z,2.06
2022-12-09T16:11:03.302Z,1.78
2022-12-09T16:16:33.077Z,1.80
2022-12-09T16:21:36.374Z,1.82
2022-12-09T16:26:44.183Z,1.74
2022-12-09T16:31:45.957Z,1.83
2022-12-09T16:36:56.208Z,1.90
2022-12-09T16:42:00.823Z,1.82
2022-12-09T16:47:12.639Z,2.02
2022-12-09T16:52:20.670Z,1.77
2022-12-09T16:57:22.406Z,1.66
2022-12-09T17:02:39.464Z,1.82
2022-12-09T17:07:41.277Z,1.87
2022-12-09T17:12:44.485Z,2.07
2022-12-09T17:17:48.888Z,2.08
2022-12-09T17:22:51.112Z,2.01
2022-12-09T17:27:53.288Z,1.95
2022-12-09T17:32:55.397Z,1.83
2022-12-09T17:37:57.114Z,1.83
2022-12-09T17:42:58.992Z,2.00
2022-12-09T17:48:00.939Z,2.16
2022-12-09T17:53:02.730Z,2.01
2022-12-09T17:58:04.796Z,2.01
2022-12-09T18:03:07.507Z,1.98
2022-12-09T18:08:09.931Z,1.99
2022-12-09T18:13:11.919Z,1.87
2022-12-09T18:18:13.713Z,1.86
2022-12-09T18:23:16.553Z,1.83
2022-12-09T18:28:18.248Z,1.84
2022-12-09T18:33:19.908Z,1.84
2022-12-09T18:38:21.673Z,1.73
2022-12-09T18:43:23.564Z,1.77
2022-12-09T18:48:25.292Z,1.71
2022-12-09T18:53:27.490Z,1.79
2022-12-09T18:58:57.515Z,1.79
2022-12-09T19:03:54.497Z,1.76
2022-12-09T19:08:58.810Z,1.91
2022-12-09T19:14:01.314Z,1.82
2022-12-09T19:19:09.200Z,1.80
2022-12-09T19:24:18.150Z,1.93
2022-12-09T19:29:20.748Z,1.81
2022-12-09T19:34:28.312Z,1.66
2022-12-09T19:39:31.606Z,1.79
2022-12-09T19:49:55.466Z,1.56
2022-12-09T19:54:57.362Z,1.61
2022-12-09T19:59:59.081Z,1.74
2022-12-09T20:05:00.821Z,1.56
2022-12-09T20:10:02.723Z,1.57
2022-12-09T20:15:07.953Z,1.50
2022-12-09T20:20:11.030Z,1.53
2022-12-09T20:25:12.762Z,1.44
2022-12-09T20:30:14.576Z,1.63
2022-12-09T20:35:16.655Z,1.61
2022-12-09T20:40:18.458Z,1.46
2022-12-09T20:45:20.194Z,1.56
2022-12-09T20:50:21.920Z,1.62
2022-12-09T20:55:23.641Z,1.67
2022-12-09T21:00:25.472Z,1.71
2022-12-09T21:05:27.270Z,1.77
2022-12-09T21:10:29.014Z,1.42
2022-12-09T21:15:30.793Z,1.54
2022-12-09T21:20:32.694Z,1.34
2022-12-09T21:25:34.417Z,1.46
2022-12-09T21:30:38.189Z,1.54
2022-12-09T21:35:45.302Z,1.42
2022-12-09T21:40:47.064Z,1.40
2022-12-09T21:45:48.857Z,1.48
2022-12-09T21:50:55.246Z,1.38
2022-12-09T21:56:15.861Z,1.38
2022-12-09T22:01:23.290Z,1.33
2022-12-09T22:06:25.788Z,1.49
2022-12-09T22:11:29.957Z,1.31
2022-12-09T22:16:34.561Z,1.36
2022-12-09T22:21:37.088Z,1.24
2022-12-09T22:26:40.017Z,1.09
2022-12-09T22:31:42.591Z,1.27
2022-12-09T22:36:45.022Z,1.21
2022-12-09T22:41:46.778Z,1.07
2022-12-09T22:46:49.176Z,1.17
2022-12-09T22:51:50.903Z,1.12
2022-12-09T22:56:52.744Z,1.06
2022-12-09T23:01:54.726Z,1.23
2022-12-09T23:06:56.632Z,1.06
2022-12-09T23:11:58.344Z,1.15
2022-12-09T23:17:00.022Z,1.12
2022-12-09T23:22:01.907Z,1.26
2022-12-09T23:27:04.717Z,1.14
2022-12-09T23:32:06.416Z,1.13
2022-12-09T23:37:08.021Z,1.14
2022-12-09T23:42:09.686Z,1.09
2022-12-09T23:47:11.413Z,1.10
2022-12-09T23:52:15.878Z,1.17
2022-12-09T23:57:17.586Z,1.23
